createdAt,value
2018-03-26T00:01:21.634Z,4.70
2018-03-26T00:03:49.859Z,5.53
2018-03-26T00:06:17.326Z,3.97
2018-03-26T00:08:44.803Z,8.77
2018-03-26T00:11:12.253Z,5.77
2018-03-26T00:13:39.732Z,6.87
2018-03-26T00:16:07.956Z,5.63
2018-03-26T00:18:35.419Z,5.63
2018-03-26T00:21:02.907Z,6.93
2018-03-26T00:23:30.354Z,8.87
2018-03-26T00:25:57.822Z,5.60
2018-03-26T00:28:25.290Z,5.80
2018-03-26T00:30:53.528Z,8.10
2018-03-26T00:33:20.981Z,6.20
2018-03-26T00:35:48.445Z,7.17
2018-03-26T00:38:15.900Z,7.00
2018-03-26T00:40:43.352Z,8.60
2018-03-26T00:43:10.833Z,6.00
2018-03-26T00:45:38.294Z,7.30
2018-03-26T00:48:06.520Z,8.63
2018-03-26T00:50:33.983Z,7.07
2018-03-26T00:53:01.438Z,6.53
2018-03-26T00:55:28.946Z,7.57
2018-03-26T00:57:57.179Z,4.30
2018-03-26T01:00:24.643Z,10.30
2018-03-26T01:02:52.108Z,6.83
2018-03-26T01:05:19.577Z,5.13
2018-03-26T01:07:47.028Z,3.27
2018-03-26T01:10:14.483Z,5.93
2018-03-26T01:12:42.056Z,4.43
2018-03-26T01:15:10.279Z,6.73
2018-03-26T01:17:37.754Z,6.10
2018-03-26T01:20:05.227Z,4.97
2018-03-26T01:22:32.679Z,4.40
2018-03-26T01:25:00.145Z,8.57
2018-03-26T01:27:28.386Z,6.70
2018-03-26T01:29:55.848Z,9.00
2018-03-26T01:32:23.304Z,6.20
2018-03-26T01:34:50.946Z,6.37
2018-03-26T01:37:19.171Z,6.87
2018-03-26T01:39:47.398Z,7.93
2018-03-26T01:42:14.862Z,5.10
2018-03-26T01:44:42.332Z,10.20
2018-03-26T01:47:09.801Z,6.47
2018-03-26T01:49:37.266Z,6.70
2018-03-26T01:52:05.491Z,5.57
2018-03-26T01:54:32.966Z,5.70
2018-03-26T01:57:00.440Z,7.00
2018-03-26T01:59:28.669Z,11.23
2018-03-26T02:01:56.127Z,6.73
2018-03-26T02:04:23.594Z,9.97
2018-03-26T02:06:51.059Z,8.43
2018-03-26T02:09:18.527Z,9.40
2018-03-26T02:11:46.012Z,10.23
2018-03-26T02:14:14.244Z,5.97
2018-03-26T02:16:41.745Z,11.93
2018-03-26T02:19:09.219Z,10.67
2018-03-26T02:21:36.687Z,12.23
2018-03-26T02:24:04.147Z,10.07
2018-03-26T02:26:31.627Z,8.27
2018-03-26T02:28:59.853Z,9.47
2018-03-26T02:31:27.302Z,8.07
2018-03-26T02:33:54.778Z,9.87
2018-03-26T02:36:22.244Z,10.23
2018-03-26T02:38:49.706Z,7.47
2018-03-26T02:41:17.176Z,10.13
2018-03-26T02:43:44.644Z,6.93
2018-03-26T02:46:12.099Z,8.07
2018-03-26T02:48:39.566Z,6.90
2018-03-26T02:51:07.021Z,5.50
2018-03-26T02:53:35.246Z,6.47
2018-03-26T02:56:02.910Z,8.70
2018-03-26T02:58:30.360Z,9.20
2018-03-26T03:00:57.828Z,7.93
2018-03-26T03:03:25.300Z,8.90
2018-03-26T03:05:52.959Z,7.70
2018-03-26T03:08:20.417Z,9.53
2018-03-26T03:10:47.886Z,7.33
2018-03-26T03:13:15.408Z,9.90
2018-03-26T03:15:42.869Z,4.50
2018-03-26T03:18:10.355Z,5.77
2018-03-26T03:20:37.806Z,6.33
2018-03-26T03:23:05.266Z,6.10
2018-03-26T03:25:32.718Z,8.50
2018-03-26T03:28:00.174Z,8.70
2018-03-26T03:30:27.652Z,6.50
2018-03-26T03:32:55.894Z,5.97
2018-03-26T03:35:23.369Z,5.80
2018-03-26T03:37:50.829Z,10.20
2018-03-26T03:40:19.077Z,7.03
2018-03-26T03:42:46.570Z,9.73
2018-03-26T03:45:14.785Z,8.37
2018-03-26T03:47:42.249Z,8.47
2018-03-26T03:50:09.732Z,8.57
2018-03-26T03:52:37.200Z,10.17
2018-03-26T03:55:05.446Z,8.73
2018-03-26T03:57:32.915Z,5.53
2018-03-26T04:00:00.394Z,8.18
2018-03-26T04:02:28.615Z,9.13
2018-03-26T04:04:56.070Z,7.93
2018-03-26T04:07:23.537Z,8.90
2018-03-26T04:09:51.002Z,6.83
2018-03-26T04:12:18.486Z,7.00
2018-03-26T04:14:46.702Z,8.03
2018-03-26T04:17:14.184Z,9.07
2018-03-26T04:19:41.638Z,6.67
2018-03-26T04:22:09.209Z,9.70
2018-03-26T04:24:36.673Z,9.03
2018-03-26T04:27:04.166Z,6.97
2018-03-26T04:29:31.641Z,9.77
2018-03-26T04:31:59.090Z,8.30
2018-03-26T04:34:26.569Z,13.27
2018-03-26T04:36:54.029Z,7.40
2018-03-26T04:39:22.286Z,8.07
2018-03-26T04:41:49.740Z,10.60
2018-03-26T04:44:17.208Z,8.53
2018-03-26T04:46:44.653Z,9.20
2018-03-26T04:49:12.133Z,9.10
2018-03-26T04:51:39.584Z,10.73
2018-03-26T04:54:07.072Z,10.93
2018-03-26T04:56:35.291Z,5.23
2018-03-26T04:59:02.834Z,9.00
2018-03-26T05:01:30.321Z,8.43
2018-03-26T05:03:57.777Z,10.53
2018-03-26T05:06:26.031Z,7.70
2018-03-26T05:08:53.475Z,15.37
2018-03-26T05:11:20.944Z,7.77
2018-03-26T05:13:48.428Z,8.23
2018-03-26T05:16:15.894Z,11.23
2018-03-26T05:18:43.376Z,9.53
2018-03-26T05:21:11.645Z,12.17
2018-03-26T05:23:39.863Z,7.97
2018-03-26T05:26:07.349Z,11.48
2018-03-26T05:28:34.820Z,7.00
2018-03-26T05:31:02.331Z,9.30
2018-03-26T05:33:30.645Z,6.97
2018-03-26T05:35:58.118Z,9.70
2018-03-26T05:38:26.346Z,12.43
2018-03-26T05:40:54.595Z,7.93
2018-03-26T05:43:22.055Z,7.18
2018-03-26T05:45:49.559Z,8.90
2018-03-26T05:48:17.009Z,7.13
2018-03-26T05:50:44.495Z,7.10
2018-03-26T05:53:12.722Z,6.43
2018-03-26T05:55:40.218Z,5.50
2018-03-26T05:58:08.441Z,9.30
2018-03-26T06:00:35.916Z,8.43
2018-03-26T06:03:03.374Z,8.80
2018-03-26T06:05:30.863Z,5.77
2018-03-26T06:07:59.107Z,10.97
2018-03-26T06:10:26.573Z,9.90
2018-03-26T06:12:54.140Z,9.10
2018-03-26T06:15:21.633Z,7.60
2018-03-26T06:17:49.122Z,11.30
2018-03-26T06:20:16.582Z,8.13
2018-03-26T06:22:44.060Z,13.80
2018-03-26T06:25:11.516Z,12.70
2018-03-26T06:27:38.994Z,14.33
2018-03-26T06:30:07.238Z,5.40
2018-03-26T06:32:34.717Z,8.73
2018-03-26T06:35:02.934Z,10.20
2018-03-26T06:40:33.987Z,10.47
2018-03-26T06:43:01.480Z,6.33
2018-03-26T06:45:29.042Z,9.87
2018-03-26T06:47:56.589Z,10.03
2018-03-26T06:50:24.073Z,6.73
2018-03-26T06:52:52.432Z,8.70
2018-03-26T06:55:19.889Z,14.60
2018-03-26T06:57:47.342Z,10.67
2018-03-26T07:00:14.836Z,10.37
2018-03-26T07:02:42.292Z,7.73
2018-03-26T07:05:09.766Z,12.83
2018-03-26T07:07:37.282Z,8.67
2018-03-26T07:10:05.273Z,14.03
2018-03-26T07:12:32.749Z,8.50
2018-03-26T07:15:00.219Z,8.73
2018-03-26T07:17:27.698Z,8.23
2018-03-26T07:19:55.182Z,9.23
2018-03-26T07:22:23.413Z,10.37
2018-03-26T07:24:50.990Z,13.07
2018-03-26T07:27:18.444Z,10.97
2018-03-26T07:29:46.010Z,9.20
2018-03-26T07:32:13.565Z,10.60
2018-03-26T07:34:41.046Z,12.47
2018-03-26T07:37:09.281Z,12.27
2018-03-26T07:39:36.762Z,11.47
2018-03-26T07:42:04.214Z,11.43
2018-03-26T07:44:31.692Z,12.13
2018-03-26T07:46:59.937Z,10.53
2018-03-26T07:49:27.492Z,11.90
2018-03-26T07:51:55.023Z,14.63
2018-03-26T07:54:23.229Z,12.43
2018-03-26T07:56:50.677Z,15.17
2018-03-26T07:59:18.238Z,12.50
2018-03-26T08:01:45.705Z,13.37
2018-03-26T08:04:13.246Z,10.57
2018-03-26T08:06:40.702Z,12.47
2018-03-26T08:09:08.476Z,9.47
2018-03-26T08:11:36.104Z,11.87
2018-03-26T08:14:03.580Z,9.53
2018-03-26T08:16:31.073Z,15.57
2018-03-26T08:18:59.294Z,14.33
2018-03-26T08:21:26.745Z,7.67
2018-03-26T08:23:54.224Z,14.60
2018-03-26T08:26:21.689Z,16.80
2018-03-26T08:28:50.570Z,13.70
2018-03-26T08:31:18.048Z,18.60
2018-03-26T08:33:46.396Z,23.37
2018-03-26T08:36:13.880Z,21.10
2018-03-26T08:38:42.113Z,14.87
2018-03-26T08:41:09.595Z,18.07
2018-03-26T08:43:37.145Z,19.60
2018-03-26T08:46:04.636Z,15.93
2018-03-26T08:48:32.879Z,18.23
2018-03-26T08:51:00.347Z,14.20
2018-03-26T08:53:29.364Z,16.00
2018-03-26T08:55:56.043Z,13.67
2018-03-26T08:58:23.524Z,15.77
2018-03-26T09:00:51.014Z,25.40
2018-03-26T09:03:18.539Z,17.20
2018-03-26T09:05:46.143Z,15.50
2018-03-26T09:08:14.392Z,34.07
2018-03-26T09:10:42.734Z,18.80
2018-03-26T09:13:10.195Z,14.20
2018-03-26T09:15:37.757Z,20.13
2018-03-26T09:18:05.218Z,16.87
2018-03-26T09:20:32.826Z,16.63
2018-03-26T09:23:00.365Z,13.90
2018-03-26T09:25:27.897Z,18.57
2018-03-26T09:27:55.460Z,17.03
2018-03-26T09:30:23.006Z,16.70
2018-03-26T09:32:50.521Z,16.50
2018-03-26T09:35:17.997Z,10.73
2018-03-26T09:37:45.475Z,16.87
2018-03-26T09:40:13.687Z,14.60
2018-03-26T09:42:41.474Z,23.27
2018-03-26T09:45:09.760Z,17.00
2018-03-26T09:47:37.384Z,14.00
2018-03-26T09:50:08.358Z,20.83
2018-03-26T09:52:36.661Z,15.50
2018-03-26T09:55:07.068Z,13.03
2018-03-26T09:57:35.549Z,19.37
2018-03-26T10:00:03.601Z,26.73
2018-03-26T10:02:31.465Z,16.97
2018-03-26T10:04:58.954Z,18.30
2018-03-26T10:07:26.573Z,18.60
2018-03-26T10:09:54.073Z,14.07
2018-03-26T10:12:21.562Z,22.77
2018-03-26T10:14:49.048Z,20.30
2018-03-26T10:17:16.561Z,23.20
2018-03-26T10:19:44.835Z,19.10
2018-03-26T10:22:13.085Z,13.27
2018-03-26T10:24:41.327Z,16.83
2018-03-26T10:27:08.823Z,17.73
2018-03-26T10:29:36.331Z,19.57
2018-03-26T10:32:03.824Z,17.57
2018-03-26T10:34:31.331Z,15.50
2018-03-26T10:36:58.884Z,14.17
2018-03-26T10:39:26.436Z,21.40
2018-03-26T10:41:54.674Z,14.97
2018-03-26T10:44:22.251Z,19.23
2018-03-26T10:46:50.475Z,15.43
2018-03-26T10:49:17.960Z,20.37
2018-03-26T10:51:46.226Z,18.13
2018-03-26T10:54:13.799Z,17.53
2018-03-26T10:56:41.340Z,18.33
2018-03-26T10:59:08.828Z,13.90
2018-03-26T11:01:36.357Z,16.97
2018-03-26T11:04:03.846Z,17.17
2018-03-26T11:06:32.084Z,16.50
2018-03-26T11:08:59.582Z,18.17
2018-03-26T11:11:27.838Z,14.03
2018-03-26T11:13:55.402Z,15.67
2018-03-26T11:16:23.646Z,24.07
2018-03-26T11:18:51.101Z,17.87
2018-03-26T11:21:18.669Z,15.93
2018-03-26T11:23:46.120Z,14.60
2018-03-26T11:26:13.696Z,15.00
2018-03-26T11:28:41.941Z,19.80
2018-03-26T11:31:09.517Z,16.30
2018-03-26T11:33:36.998Z,18.90
2018-03-26T11:36:05.234Z,19.47
2018-03-26T11:38:32.734Z,18.57
2018-03-26T11:41:00.968Z,15.13
2018-03-26T11:43:28.454Z,15.67
2018-03-26T11:45:56.702Z,18.30
2018-03-26T11:48:24.156Z,17.97
2018-03-26T11:50:51.640Z,24.90
2018-03-26T11:53:19.857Z,16.90
2018-03-26T11:55:47.344Z,16.33
2018-03-26T11:58:14.796Z,17.70
2018-03-26T12:00:42.274Z,18.63
2018-03-26T12:03:09.812Z,16.70
2018-03-26T12:05:37.298Z,20.10
2018-03-26T12:08:05.545Z,16.43
2018-03-26T12:10:33.130Z,15.30
2018-03-26T12:13:01.424Z,16.27
2018-03-26T12:15:28.844Z,18.93
2018-03-26T12:17:56.320Z,21.00
2018-03-26T12:20:36.408Z,20.10
2018-03-26T12:23:15.881Z,19.20
2018-03-26T12:25:43.349Z,16.27
2018-03-26T12:28:22.668Z,15.63
2018-03-26T12:30:50.141Z,15.63
2018-03-26T12:33:17.593Z,11.97
2018-03-26T12:35:59.759Z,14.13
2018-03-26T12:38:27.215Z,15.00
2018-03-26T12:40:57.446Z,17.73
2018-03-26T12:43:25.003Z,15.00
2018-03-26T12:46:04.623Z,15.57
2018-03-26T12:48:32.079Z,15.50
2018-03-26T12:51:11.464Z,12.67
2018-03-26T12:53:39.623Z,15.40
2018-03-26T12:56:07.182Z,10.60
2018-03-26T12:58:51.440Z,16.80
2018-03-26T13:04:21.130Z,16.00
2018-03-26T13:06:48.590Z,16.07
2018-03-26T13:09:16.034Z,13.47
2018-03-26T13:11:43.492Z,11.03
2018-03-26T13:14:10.975Z,12.30
2018-03-26T13:16:38.535Z,12.97
2018-03-26T13:19:06.090Z,14.23
2018-03-26T13:21:33.542Z,13.57
2018-03-26T13:24:01.101Z,14.37
2018-03-26T13:26:28.575Z,12.30
2018-03-26T13:28:56.119Z,7.40
2018-03-26T13:31:23.730Z,12.23
2018-03-26T13:33:51.244Z,8.33
2018-03-26T13:36:19.512Z,13.40
2018-03-26T13:38:46.969Z,9.70
2018-03-26T13:41:14.436Z,11.17
2018-03-26T13:43:41.896Z,8.80
2018-03-26T13:46:10.150Z,11.27
2018-03-26T13:48:37.614Z,16.13
2018-03-26T13:51:05.063Z,9.80
2018-03-26T13:53:32.532Z,14.50
2018-03-26T13:56:00.072Z,12.30
2018-03-26T13:58:27.529Z,10.73
2018-03-26T14:00:55.086Z,6.40
2018-03-26T14:03:22.562Z,9.63
2018-03-26T14:05:50.792Z,12.77
2018-03-26T14:08:30.739Z,12.13
2018-03-26T14:11:10.074Z,16.83
2018-03-26T14:13:49.381Z,11.23
2018-03-26T14:16:28.894Z,10.77
2018-03-26T14:18:56.635Z,15.10
2018-03-26T14:21:24.188Z,13.40
2018-03-26T14:23:59.524Z,10.60
2018-03-26T14:26:26.974Z,12.53
2018-03-26T14:28:54.429Z,12.10
2018-03-26T14:31:21.904Z,9.90
2018-03-26T14:33:49.469Z,10.27
2018-03-26T14:36:17.704Z,11.20
2018-03-26T14:38:45.608Z,10.27
2018-03-26T14:41:13.066Z,11.83
2018-03-26T14:43:41.370Z,14.53
2018-03-26T14:46:08.901Z,13.83
2018-03-26T14:48:36.364Z,10.93
2018-03-26T14:51:03.817Z,8.03
2018-03-26T14:53:32.078Z,9.30
2018-03-26T14:56:00.344Z,8.23
2018-03-26T14:58:27.798Z,8.57
2018-03-26T15:00:56.049Z,7.53
2018-03-26T15:03:23.537Z,8.47
2018-03-26T15:05:51.082Z,10.83
2018-03-26T15:08:18.556Z,9.67
2018-03-26T15:10:46.007Z,8.60
2018-03-26T15:13:13.972Z,8.23
2018-03-26T15:15:41.434Z,7.40
2018-03-26T15:18:09.697Z,9.20
2018-03-26T15:20:37.248Z,8.17
2018-03-26T15:23:05.494Z,11.67
2018-03-26T15:25:32.956Z,7.90
2018-03-26T15:28:00.410Z,6.13
2018-03-26T15:30:27.883Z,8.93
2018-03-26T15:32:55.450Z,6.60
2018-03-26T15:35:22.897Z,7.20
2018-03-26T15:37:50.373Z,7.73
2018-03-26T15:40:17.829Z,9.00
2018-03-26T15:42:45.287Z,7.13
2018-03-26T15:45:12.757Z,8.63
2018-03-26T15:47:40.985Z,4.47
2018-03-26T15:50:08.438Z,6.50
2018-03-26T15:52:35.959Z,6.47
2018-03-26T15:55:03.412Z,4.63
2018-03-26T15:57:30.884Z,6.27
2018-03-26T15:59:58.343Z,7.03
2018-03-26T16:05:26.535Z,7.20
2018-03-26T16:07:53.990Z,9.20
2018-03-26T16:10:21.447Z,6.90
2018-03-26T16:12:48.921Z,8.37
2018-03-26T16:15:16.386Z,10.80
2018-03-26T16:17:43.845Z,6.10
2018-03-26T16:20:11.313Z,8.73
2018-03-26T16:22:38.777Z,7.20
2018-03-26T16:25:06.234Z,7.43
2018-03-26T16:27:33.798Z,9.03
2018-03-26T16:30:01.351Z,11.97
2018-03-26T16:32:28.898Z,17.97
2018-03-26T16:34:56.377Z,10.67
2018-03-26T16:37:24.594Z,14.50
2018-03-26T16:39:52.065Z,14.20
2018-03-26T16:42:25.477Z,9.20
2018-03-26T16:44:53.044Z,10.87
2018-03-26T16:47:20.585Z,7.97
2018-03-26T16:49:48.064Z,8.67
2018-03-26T16:52:15.518Z,9.17
2018-03-26T16:54:43.057Z,7.00
2018-03-26T16:57:10.531Z,7.20
2018-03-26T16:59:38.073Z,10.40
2018-03-26T17:02:05.533Z,10.33
2018-03-26T17:04:32.999Z,6.73
2018-03-26T17:07:00.462Z,11.13
2018-03-26T17:09:28.678Z,6.73
2018-03-26T17:11:56.157Z,7.77
2018-03-26T17:14:23.613Z,7.13
2018-03-26T17:16:51.130Z,9.30
2018-03-26T17:19:18.536Z,8.97
2018-03-26T17:21:45.986Z,7.73
2018-03-26T17:24:19.130Z,7.90
2018-03-26T17:26:46.662Z,8.00
2018-03-26T17:29:15.125Z,7.70
2018-03-26T17:31:42.592Z,11.70
2018-03-26T17:34:10.177Z,8.63
2018-03-26T17:36:37.665Z,7.97
2018-03-26T17:39:05.935Z,6.10
2018-03-26T17:41:33.400Z,5.93
2018-03-26T17:44:00.851Z,7.70
2018-03-26T17:46:28.332Z,6.33
2018-03-26T17:48:55.785Z,7.77
2018-03-26T17:51:24.082Z,7.67
2018-03-26T17:53:51.564Z,6.00
2018-03-26T17:56:19.081Z,7.40
2018-03-26T17:58:46.557Z,7.33
2018-03-26T18:01:14.798Z,6.20
2018-03-26T18:03:42.253Z,9.10
2018-03-26T18:06:10.921Z,5.40
2018-03-26T18:08:38.384Z,9.73
2018-03-26T18:11:05.861Z,10.00
2018-03-26T18:13:33.649Z,4.43
2018-03-26T18:16:01.898Z,8.30
2018-03-26T18:18:30.438Z,9.07
2018-03-26T18:20:57.942Z,7.10
2018-03-26T18:23:25.660Z,4.80
2018-03-26T18:25:53.353Z,7.50
2018-03-26T18:28:20.816Z,6.17
2018-03-26T18:30:48.284Z,9.70
2018-03-26T18:33:15.813Z,6.80
2018-03-26T18:35:43.573Z,4.67
2018-03-26T18:38:11.069Z,5.50
2018-03-26T18:40:39.298Z,5.10
2018-03-26T18:43:06.764Z,7.13
2018-03-26T18:45:34.871Z,7.37
2018-03-26T18:48:03.101Z,7.17
2018-03-26T18:50:30.568Z,6.93
2018-03-26T18:52:58.299Z,7.47
2018-03-26T18:55:25.789Z,7.77
2018-03-26T18:57:54.320Z,9.43
2018-03-26T19:00:21.849Z,5.33
2018-03-26T19:02:50.107Z,5.63
2018-03-26T19:05:18.378Z,7.33
2018-03-26T19:07:46.744Z,6.73
2018-03-26T19:10:14.201Z,5.60
2018-03-26T19:12:41.669Z,7.20
2018-03-26T19:15:09.137Z,7.20
2018-03-26T19:17:37.361Z,8.10
2018-03-26T19:20:04.809Z,8.20
2018-03-26T19:22:32.308Z,5.37
2018-03-26T19:24:59.765Z,5.97
2018-03-26T19:27:27.317Z,8.33
2018-03-26T19:29:54.796Z,10.23
2018-03-26T19:32:23.014Z,9.50
2018-03-26T19:34:50.467Z,6.80
2018-03-26T19:37:18.233Z,9.30
2018-03-26T19:39:45.701Z,8.43
2018-03-26T19:42:13.284Z,6.97
2018-03-26T19:44:40.742Z,10.63
2018-03-26T19:47:08.216Z,7.30
2018-03-26T19:49:36.465Z,7.23
2018-03-26T19:52:03.938Z,9.23
2018-03-26T19:54:32.163Z,10.03
2018-03-26T19:56:59.651Z,7.70
2018-03-26T19:59:27.114Z,11.87
2018-03-26T20:01:54.677Z,9.40
2018-03-26T20:04:22.130Z,10.50
2018-03-26T20:06:49.682Z,9.63
2018-03-26T20:09:17.137Z,7.37
2018-03-26T20:11:44.616Z,6.77
2018-03-26T20:14:12.840Z,6.93
2018-03-26T20:16:40.329Z,6.00
2018-03-26T20:19:07.796Z,7.47
2018-03-26T20:21:35.333Z,5.90
2018-03-26T20:24:02.835Z,11.67
2018-03-26T20:26:30.347Z,9.37
2018-03-26T20:28:57.828Z,9.67
2018-03-26T20:31:26.055Z,9.03
2018-03-26T20:33:53.541Z,9.50
2018-03-26T20:36:21.089Z,11.63
2018-03-26T20:38:48.581Z,12.07
2018-03-26T20:41:16.796Z,8.43
2018-03-26T20:43:44.277Z,12.43
2018-03-26T20:46:11.752Z,9.77
2018-03-26T20:48:40.009Z,9.90
2018-03-26T20:51:07.468Z,10.57
2018-03-26T20:53:35.022Z,8.87
2018-03-26T20:56:02.501Z,8.23
2018-03-26T20:58:30.760Z,8.33
2018-03-26T21:00:58.353Z,9.30
2018-03-26T21:03:25.864Z,12.30
2018-03-26T21:05:53.371Z,8.50
2018-03-26T21:08:20.814Z,7.70
2018-03-26T21:10:48.269Z,9.67
2018-03-26T21:13:16.518Z,10.13
2018-03-26T21:15:43.997Z,11.40
2018-03-26T21:18:12.239Z,7.73
2018-03-26T21:20:39.698Z,14.13
2018-03-26T21:23:07.936Z,10.40
2018-03-26T21:25:35.438Z,10.43
2018-03-26T21:28:02.914Z,11.90
2018-03-26T21:30:31.220Z,8.97
2018-03-26T21:32:58.674Z,10.33
2018-03-26T21:35:26.250Z,11.73
2018-03-26T21:37:54.126Z,9.23
2018-03-26T21:40:21.612Z,9.67
2018-03-26T21:42:49.838Z,10.60
2018-03-26T21:45:17.292Z,7.60
2018-03-26T21:47:44.785Z,10.73
2018-03-26T21:50:12.273Z,16.93
2018-03-26T21:52:39.754Z,10.30
2018-03-26T21:55:07.220Z,8.60
2018-03-26T21:57:34.710Z,11.90
2018-03-26T22:00:02.190Z,9.77
2018-03-26T22:02:30.531Z,7.23
2018-03-26T22:04:57.990Z,10.50
2018-03-26T22:07:25.469Z,10.30
2018-03-26T22:09:53.686Z,7.33
2018-03-26T22:12:21.167Z,8.30
2018-03-26T22:14:48.618Z,11.20
2018-03-26T22:17:16.090Z,11.10
2018-03-26T22:19:44.331Z,7.97
2018-03-26T22:22:11.805Z,9.70
2018-03-26T22:24:39.285Z,10.37
2018-03-26T22:27:06.854Z,9.53
2018-03-26T22:29:35.085Z,10.90
2018-03-26T22:32:02.532Z,9.83
2018-03-26T22:34:30.014Z,9.33
2018-03-26T22:36:57.490Z,7.93
2018-03-26T22:39:25.705Z,10.10
2018-03-26T22:41:53.168Z,15.87
2018-03-26T22:44:20.637Z,10.93
2018-03-26T22:46:48.103Z,12.43
2018-03-26T22:49:15.556Z,11.00
2018-03-26T22:51:43.026Z,7.10
2018-03-26T22:54:10.477Z,9.70
2018-03-26T22:56:38.697Z,7.57
2018-03-26T22:59:06.684Z,9.50
2018-03-26T23:01:34.182Z,8.40
2018-03-26T23:04:01.630Z,10.73
2018-03-26T23:06:29.095Z,11.10
2018-03-26T23:08:56.660Z,8.90
2018-03-26T23:11:24.117Z,10.87
2018-03-26T23:13:51.582Z,7.13
2018-03-26T23:16:19.864Z,8.83
2018-03-26T23:18:48.285Z,9.50
2018-03-26T23:21:15.872Z,9.70
2018-03-26T23:23:43.447Z,9.60
2018-03-26T23:26:10.985Z,8.03
2018-03-26T23:28:38.476Z,9.73
2018-03-26T23:31:06.681Z,9.17
2018-03-26T23:33:34.177Z,12.30
2018-03-26T23:36:01.726Z,9.87
2018-03-26T23:38:29.181Z,10.00
2018-03-26T23:40:56.635Z,7.53
2018-03-26T23:43:24.196Z,7.37
2018-03-26T23:45:51.653Z,11.30
2018-03-26T23:48:19.106Z,9.17
2018-03-26T23:50:46.573Z,8.80
2018-03-26T23:53:14.025Z,9.13
2018-03-26T23:55:42.257Z,22.93
2018-03-26T23:58:09.740Z,15.00
